createdAt,value
2019-03-24T00:01:41.232Z,7.60
2019-03-24T00:04:06.065Z,8.17
2019-03-24T00:06:37.205Z,7.97
2019-03-24T00:09:09.262Z,8.23
2019-03-24T00:11:40.289Z,7.93
2019-03-24T00:14:11.261Z,7.87
2019-03-24T00:16:42.285Z,7.73
2019-03-24T00:19:13.298Z,8.40
2019-03-24T00:21:44.281Z,7.83
2019-03-24T00:24:15.295Z,8.43
2019-03-24T00:26:46.329Z,7.93
2019-03-24T00:29:17.317Z,7.70
2019-03-24T00:31:48.355Z,7.97
2019-03-24T00:34:19.343Z,8.13
2019-03-24T00:36:50.377Z,8.00
2019-03-24T00:39:21.585Z,8.00
2019-03-24T00:41:52.560Z,7.53
2019-03-24T00:44:23.577Z,8.20
2019-03-24T00:46:54.561Z,7.77
2019-03-24T00:49:25.586Z,7.43
2019-03-24T00:51:56.570Z,8.10
2019-03-24T00:54:27.592Z,7.53
2019-03-24T00:56:58.563Z,7.83
2019-03-24T00:59:29.641Z,8.07
2019-03-24T01:02:00.689Z,7.93
2019-03-24T01:04:31.680Z,7.63
2019-03-24T01:07:02.707Z,7.70
2019-03-24T01:09:33.793Z,8.20
2019-03-24T01:12:04.912Z,8.20
2019-03-24T01:14:35.998Z,7.83
2019-03-24T01:17:07.035Z,7.90
2019-03-24T01:19:38.012Z,7.60
2019-03-24T01:22:09.123Z,8.17
2019-03-24T01:24:40.113Z,7.83
2019-03-24T01:27:11.133Z,8.30
2019-03-24T01:29:42.148Z,7.93
2019-03-24T01:32:13.172Z,8.50
2019-03-24T01:34:44.164Z,7.70
2019-03-24T01:37:15.188Z,7.53
2019-03-24T01:39:46.171Z,7.37
2019-03-24T01:42:17.185Z,7.03
2019-03-24T01:44:48.200Z,6.83
2019-03-24T01:47:19.219Z,7.17
2019-03-24T01:49:50.224Z,7.63
2019-03-24T01:52:21.299Z,7.20
2019-03-24T01:54:52.307Z,7.77
2019-03-24T01:57:23.304Z,8.00
2019-03-24T01:59:54.303Z,7.07
2019-03-24T02:02:25.296Z,6.73
2019-03-24T02:04:56.359Z,7.67
2019-03-24T02:07:27.372Z,6.47
2019-03-24T02:09:58.345Z,7.20
2019-03-24T02:12:29.355Z,6.53
2019-03-24T02:15:00.351Z,6.20
2019-03-24T02:17:31.376Z,6.93
2019-03-24T02:20:02.355Z,6.30
2019-03-24T02:22:33.337Z,6.60
2019-03-24T02:25:04.494Z,6.60
2019-03-24T02:27:35.470Z,6.60
2019-03-24T02:30:07.809Z,6.20
2019-03-24T02:32:38.792Z,6.50
2019-03-24T02:35:09.953Z,6.50
2019-03-24T02:37:40.981Z,6.53
2019-03-24T02:40:12.170Z,6.50
2019-03-24T02:42:43.207Z,6.53
2019-03-24T02:45:14.564Z,6.67
2019-03-24T02:47:45.607Z,6.17
2019-03-24T02:50:16.931Z,6.60
2019-03-24T02:52:48.047Z,6.63
2019-03-24T02:55:19.123Z,6.97
2019-03-24T02:57:50.094Z,6.03
2019-03-24T03:00:21.168Z,7.17
2019-03-24T03:02:52.195Z,7.53
2019-03-24T03:05:23.171Z,7.03
2019-03-24T03:07:54.194Z,6.50
2019-03-24T03:10:25.226Z,6.10
2019-03-24T03:12:56.191Z,6.93
2019-03-24T03:15:27.316Z,6.93
2019-03-24T03:17:58.317Z,6.80
2019-03-24T03:20:29.281Z,6.40
2019-03-24T03:23:00.318Z,7.00
2019-03-24T03:25:31.263Z,6.43
2019-03-24T03:28:02.378Z,6.63
2019-03-24T03:30:33.350Z,7.10
2019-03-24T03:33:04.377Z,7.10
2019-03-24T03:35:35.406Z,7.10
2019-03-24T03:38:06.525Z,7.10
2019-03-24T03:40:37.502Z,6.53
2019-03-24T03:43:08.762Z,6.73
2019-03-24T03:45:39.776Z,7.17
2019-03-24T03:48:10.791Z,7.97
2019-03-24T03:50:41.769Z,8.33
2019-03-24T03:53:12.749Z,7.40
2019-03-24T03:55:43.881Z,10.23
2019-03-24T03:58:14.896Z,9.50
2019-03-24T04:00:45.876Z,9.17
2019-03-24T04:03:16.860Z,8.73
2019-03-24T04:05:47.905Z,8.80
2019-03-24T04:08:18.874Z,8.93
2019-03-24T04:10:49.910Z,9.30
2019-03-24T04:13:20.931Z,9.10
2019-03-24T04:15:51.927Z,7.77
2019-03-24T04:18:22.942Z,9.10
2019-03-24T04:20:53.934Z,8.47
2019-03-24T04:23:24.955Z,8.33
2019-03-24T04:25:55.945Z,8.90
2019-03-24T04:28:26.972Z,8.63
2019-03-24T04:30:57.947Z,8.70
2019-03-24T04:33:28.981Z,9.23
2019-03-24T04:35:59.965Z,11.13
2019-03-24T04:38:31.033Z,11.03
2019-03-24T04:41:02.033Z,9.53
2019-03-24T04:43:33.061Z,10.40
2019-03-24T04:46:04.093Z,10.90
2019-03-24T04:48:35.081Z,11.70
2019-03-24T04:51:06.129Z,12.10
2019-03-24T04:53:37.117Z,13.17
2019-03-24T04:56:08.099Z,12.83
2019-03-24T04:58:39.120Z,13.87
2019-03-24T05:01:10.108Z,12.90
2019-03-24T05:03:41.143Z,14.30
2019-03-24T05:06:12.433Z,14.57
2019-03-24T05:08:43.560Z,14.63
2019-03-24T05:11:14.552Z,13.83
2019-03-24T05:13:45.585Z,13.63
2019-03-24T05:16:16.610Z,13.67
2019-03-24T05:18:47.636Z,13.90
2019-03-24T05:21:18.628Z,14.33
2019-03-24T05:23:49.665Z,13.97
2019-03-24T05:26:20.643Z,13.87
2019-03-24T05:28:51.672Z,13.13
2019-03-24T05:31:22.658Z,13.63
2019-03-24T05:33:53.703Z,13.80
2019-03-24T05:36:24.700Z,13.20
2019-03-24T05:38:55.732Z,13.00
2019-03-24T05:41:26.767Z,12.93
2019-03-24T05:43:57.795Z,12.40
2019-03-24T05:46:28.794Z,11.50
2019-03-24T05:49:00.331Z,11.30
2019-03-24T05:51:31.331Z,13.50
2019-03-24T05:54:02.372Z,11.90
2019-03-24T05:56:33.405Z,12.10
2019-03-24T05:59:04.434Z,12.80
2019-03-24T06:01:35.427Z,12.67
2019-03-24T06:04:06.457Z,12.60
2019-03-24T06:06:37.393Z,13.10
2019-03-24T06:09:08.661Z,12.90
2019-03-24T06:11:39.613Z,12.63
2019-03-24T06:14:10.595Z,11.10
2019-03-24T06:16:41.546Z,11.13
2019-03-24T06:19:12.556Z,10.90
2019-03-24T06:21:43.497Z,11.57
2019-03-24T06:24:14.692Z,12.83
2019-03-24T06:26:45.681Z,12.93
2019-03-24T06:29:16.686Z,12.60
2019-03-24T06:31:47.634Z,13.40
2019-03-24T06:34:18.636Z,12.23
2019-03-24T06:36:49.589Z,11.27
2019-03-24T06:39:20.537Z,11.53
2019-03-24T06:41:51.521Z,12.17
2019-03-24T06:44:22.474Z,11.23
2019-03-24T06:46:53.475Z,10.97
2019-03-24T06:49:24.424Z,10.60
2019-03-24T06:51:55.372Z,9.53
2019-03-24T06:54:26.427Z,9.77
2019-03-24T06:56:57.377Z,9.87
2019-03-24T06:59:28.307Z,9.97
2019-03-24T07:01:59.294Z,9.40
2019-03-24T07:04:30.235Z,9.97
2019-03-24T07:07:01.231Z,10.03
2019-03-24T07:09:32.175Z,10.20
2019-03-24T07:12:03.221Z,11.07
2019-03-24T07:14:34.176Z,11.37
2019-03-24T07:17:05.273Z,10.73
2019-03-24T07:19:36.221Z,11.27
2019-03-24T07:22:07.365Z,10.60
2019-03-24T07:24:38.344Z,10.67
2019-03-24T07:27:09.338Z,10.17
2019-03-24T07:29:41.294Z,10.57
2019-03-24T07:32:12.263Z,10.33
2019-03-24T07:34:43.253Z,10.67
2019-03-24T07:37:14.310Z,10.33
2019-03-24T07:39:45.321Z,11.70
2019-03-24T07:42:16.315Z,10.87
2019-03-24T07:44:47.274Z,11.40
2019-03-24T07:47:18.373Z,10.80
2019-03-24T07:49:49.369Z,11.73
2019-03-24T07:52:20.378Z,12.57
2019-03-24T07:54:51.378Z,11.80
2019-03-24T07:57:22.325Z,12.07
2019-03-24T07:59:53.329Z,12.90
2019-03-24T08:02:24.606Z,13.10
2019-03-24T08:04:55.605Z,13.07
2019-03-24T08:07:26.546Z,12.77
2019-03-24T08:09:57.492Z,12.13
2019-03-24T08:12:28.489Z,12.57
2019-03-24T08:15:00.057Z,12.73
2019-03-24T08:17:31.207Z,12.37
2019-03-24T08:20:02.163Z,12.70
2019-03-24T08:22:33.146Z,12.20
2019-03-24T08:25:04.338Z,12.53
2019-03-24T08:27:35.299Z,12.67
2019-03-24T08:30:06.764Z,11.77
2019-03-24T08:32:37.761Z,11.40
2019-03-24T08:35:09.401Z,10.80
2019-03-24T08:37:40.402Z,11.97
2019-03-24T08:40:11.554Z,12.03
2019-03-24T08:42:42.657Z,11.80
2019-03-24T08:45:16.909Z,11.93
2019-03-24T08:47:47.896Z,11.30
2019-03-24T08:50:18.899Z,11.50
2019-03-24T08:52:49.863Z,11.63
2019-03-24T08:55:20.870Z,10.97
2019-03-24T08:57:51.871Z,10.10
2019-03-24T09:00:30.470Z,10.30
2019-03-24T09:02:55.577Z,10.73
2019-03-24T09:05:26.568Z,10.83
2019-03-24T09:07:57.505Z,10.13
2019-03-24T09:10:28.501Z,10.47
2019-03-24T09:12:59.490Z,10.97
2019-03-24T09:15:30.479Z,10.97
2019-03-24T09:18:01.530Z,10.53
2019-03-24T09:20:41.170Z,11.07
2019-03-24T09:23:05.304Z,10.07
2019-03-24T09:25:36.457Z,10.53
2019-03-24T09:28:09.224Z,10.13
2019-03-24T09:30:40.619Z,10.33
2019-03-24T09:33:11.672Z,11.30
2019-03-24T09:35:42.679Z,10.93
2019-03-24T09:38:13.648Z,10.43
2019-03-24T09:40:44.648Z,10.40
2019-03-24T09:43:15.609Z,9.50
2019-03-24T09:45:46.556Z,9.93
2019-03-24T09:48:17.548Z,10.30
2019-03-24T09:50:48.489Z,10.53
2019-03-24T09:53:19.488Z,11.13
2019-03-24T09:55:50.479Z,10.63
2019-03-24T09:58:21.424Z,9.90
2019-03-24T10:00:52.390Z,10.20
2019-03-24T10:03:23.386Z,10.40
2019-03-24T10:05:54.328Z,9.77
2019-03-24T10:08:25.314Z,10.67
2019-03-24T10:10:56.302Z,10.13
2019-03-24T10:13:27.301Z,10.13
2019-03-24T10:15:58.241Z,9.33
2019-03-24T10:18:29.186Z,9.77
2019-03-24T10:21:00.172Z,10.10
2019-03-24T10:23:31.130Z,10.33
2019-03-24T10:26:02.145Z,9.63
2019-03-24T10:28:33.069Z,9.00
2019-03-24T10:31:04.153Z,9.57
2019-03-24T10:33:35.143Z,8.90
2019-03-24T10:36:06.236Z,9.67
2019-03-24T10:38:37.172Z,9.07
2019-03-24T10:41:08.126Z,9.67
2019-03-24T10:43:39.126Z,8.23
2019-03-24T10:46:10.105Z,8.70
2019-03-24T10:48:41.062Z,9.17
2019-03-24T10:51:11.999Z,9.20
2019-03-24T10:53:42.979Z,9.40
2019-03-24T10:56:13.927Z,9.27
2019-03-24T10:58:44.920Z,9.27
2019-03-24T11:01:15.917Z,8.73
2019-03-24T11:03:46.866Z,8.70
2019-03-24T11:06:17.809Z,9.20
2019-03-24T11:08:48.792Z,9.03
2019-03-24T11:11:19.735Z,8.53
2019-03-24T11:13:50.719Z,9.17
2019-03-24T11:16:21.660Z,9.03
2019-03-24T11:18:52.640Z,8.90
2019-03-24T11:21:23.580Z,8.93
2019-03-24T11:23:54.557Z,9.17
2019-03-24T11:26:25.500Z,8.93
2019-03-24T11:28:56.482Z,9.27
2019-03-24T11:31:27.475Z,8.60
2019-03-24T11:33:58.430Z,8.77
2019-03-24T11:36:29.380Z,9.33
2019-03-24T11:39:00.367Z,8.97
2019-03-24T11:41:31.356Z,9.27
2019-03-24T11:44:02.305Z,9.10
2019-03-24T11:46:33.323Z,8.70
2019-03-24T11:49:04.268Z,9.63
2019-03-24T11:51:35.256Z,9.60
2019-03-24T11:54:06.345Z,9.13
2019-03-24T11:56:37.335Z,8.73
2019-03-24T11:59:08.288Z,8.23
2019-03-24T12:01:39.284Z,9.03
2019-03-24T12:04:10.287Z,9.37
2019-03-24T12:06:41.275Z,9.23
2019-03-24T12:09:12.269Z,8.50
2019-03-24T12:11:43.212Z,8.80
2019-03-24T12:14:14.191Z,8.63
2019-03-24T12:16:45.139Z,8.73
2019-03-24T12:19:16.126Z,7.93
2019-03-24T12:21:47.123Z,7.70
2019-03-24T12:24:18.057Z,8.40
2019-03-24T12:26:49.013Z,8.30
2019-03-24T12:29:20.005Z,8.50
2019-03-24T12:31:50.956Z,8.70
2019-03-24T12:34:21.951Z,8.70
2019-03-24T12:36:52.952Z,7.93
2019-03-24T12:39:23.906Z,7.53
2019-03-24T12:41:54.932Z,7.67
2019-03-24T12:44:25.893Z,7.57
2019-03-24T12:46:56.883Z,7.50
2019-03-24T12:49:27.831Z,7.83
2019-03-24T12:51:58.776Z,7.00
2019-03-24T12:54:29.719Z,6.70
2019-03-24T12:57:00.825Z,6.50
2019-03-24T12:59:31.758Z,6.03
2019-03-24T13:02:03.694Z,6.07
2019-03-24T13:04:34.724Z,6.60
2019-03-24T13:07:05.820Z,6.00
2019-03-24T13:09:36.771Z,6.83
2019-03-24T13:12:07.720Z,6.20
2019-03-24T13:14:38.665Z,6.50
2019-03-24T13:17:09.613Z,5.93
2019-03-24T13:19:40.605Z,7.00
2019-03-24T13:22:11.546Z,6.40
2019-03-24T13:24:42.523Z,6.63
2019-03-24T13:27:13.476Z,6.27
2019-03-24T13:29:44.458Z,6.30
2019-03-24T13:32:15.438Z,6.23
2019-03-24T13:34:46.381Z,6.20
2019-03-24T13:37:17.372Z,6.57
2019-03-24T13:39:48.327Z,6.30
2019-03-24T13:42:19.286Z,6.60
2019-03-24T13:44:50.321Z,6.50
2019-03-24T13:47:21.283Z,6.83
2019-03-24T13:49:52.276Z,6.47
2019-03-24T13:52:23.224Z,6.37
2019-03-24T13:54:54.208Z,6.60
2019-03-24T13:57:25.154Z,6.70
2019-03-24T13:59:56.136Z,6.67
2019-03-24T14:02:27.086Z,6.63
2019-03-24T14:04:58.089Z,6.47
2019-03-24T14:07:29.035Z,6.37
2019-03-24T14:09:59.983Z,6.70
2019-03-24T14:12:30.924Z,6.40
2019-03-24T14:15:01.875Z,6.87
2019-03-24T14:17:32.919Z,6.87
2019-03-24T14:20:04.008Z,6.83
2019-03-24T14:22:35.065Z,6.73
2019-03-24T14:25:06.713Z,7.30
2019-03-24T14:27:37.761Z,6.80
2019-03-24T14:30:09.856Z,6.30
2019-03-24T14:32:40.854Z,6.43
2019-03-24T14:35:12.048Z,6.40
2019-03-24T14:37:42.994Z,6.30
2019-03-24T14:40:14.487Z,6.07
2019-03-24T14:42:45.507Z,6.77
2019-03-24T14:45:16.700Z,6.40
2019-03-24T14:47:47.706Z,6.30
2019-03-24T14:50:18.755Z,6.30
2019-03-24T14:52:49.709Z,6.47
2019-03-24T14:55:20.701Z,6.30
2019-03-24T14:57:51.759Z,6.27
2019-03-24T15:00:31.382Z,6.60
2019-03-24T15:03:02.371Z,6.77
2019-03-24T15:05:33.420Z,6.33
2019-03-24T15:08:05.739Z,6.50
2019-03-24T15:10:36.751Z,6.77
2019-03-24T15:13:07.976Z,6.53
2019-03-24T15:15:39.069Z,6.53
2019-03-24T15:18:10.102Z,6.30
2019-03-24T15:20:41.135Z,6.30
2019-03-24T15:23:12.125Z,6.10
2019-03-24T15:25:43.112Z,6.47
2019-03-24T15:28:14.208Z,6.83
2019-03-24T15:30:45.250Z,6.57
2019-03-24T15:33:16.326Z,6.53
2019-03-24T15:35:47.354Z,6.50
2019-03-24T15:38:18.327Z,6.73
2019-03-24T15:40:49.799Z,8.40
2019-03-24T15:43:20.779Z,7.13
2019-03-24T15:45:51.803Z,6.43
2019-03-24T15:48:22.783Z,6.40
2019-03-24T15:50:53.770Z,6.23
2019-03-24T15:53:24.789Z,6.20
2019-03-24T15:55:55.779Z,6.03
2019-03-24T15:58:26.816Z,5.60
2019-03-24T16:00:57.812Z,5.73
2019-03-24T16:03:28.860Z,5.60
2019-03-24T16:05:59.845Z,5.70
2019-03-24T16:08:30.879Z,6.10
2019-03-24T16:11:01.970Z,5.43
2019-03-24T16:13:33.013Z,5.30
2019-03-24T16:16:04.036Z,5.93
2019-03-24T16:18:35.060Z,5.73
2019-03-24T16:21:06.058Z,5.73
2019-03-24T16:23:37.095Z,6.47
2019-03-24T16:26:08.137Z,5.73
2019-03-24T16:28:39.132Z,5.80
2019-03-24T16:31:10.175Z,5.80
2019-03-24T16:33:41.404Z,6.13
2019-03-24T16:36:12.429Z,5.57
2019-03-24T16:38:48.797Z,6.90
2019-03-24T16:41:16.132Z,6.60
2019-03-24T16:43:47.123Z,6.87
2019-03-24T16:46:18.250Z,6.43
2019-03-24T16:48:49.285Z,6.50
2019-03-24T16:51:20.271Z,6.47
2019-03-24T16:53:51.349Z,5.67
2019-03-24T16:56:22.343Z,5.73
2019-03-24T16:58:53.369Z,5.63
2019-03-24T17:01:24.511Z,5.80
2019-03-24T17:03:55.492Z,6.23
2019-03-24T17:06:26.485Z,6.37
2019-03-24T17:08:57.524Z,6.50
2019-03-24T17:11:28.512Z,6.60
2019-03-24T17:13:59.558Z,7.67
2019-03-24T17:16:30.539Z,7.97
2019-03-24T17:19:01.532Z,8.00
2019-03-24T17:21:32.561Z,8.23
2019-03-24T17:24:03.594Z,10.17
2019-03-24T17:26:36.023Z,10.87
2019-03-24T17:29:06.986Z,9.50
2019-03-24T17:31:37.992Z,9.30
2019-03-24T17:34:09.047Z,10.30
2019-03-24T17:36:40.342Z,11.50
2019-03-24T17:39:11.369Z,11.17
2019-03-24T17:41:42.366Z,11.67
2019-03-24T17:44:13.417Z,11.30
2019-03-24T17:46:44.406Z,11.33
2019-03-24T17:49:15.411Z,11.10
2019-03-24T17:51:46.452Z,11.20
2019-03-24T17:54:17.493Z,11.57
2019-03-24T17:56:48.507Z,11.53
2019-03-24T17:59:19.598Z,11.70
2019-03-24T18:01:50.597Z,12.07
2019-03-24T18:04:24.772Z,12.30
2019-03-24T18:06:54.348Z,12.27
2019-03-24T18:09:25.361Z,12.50
2019-03-24T18:11:56.395Z,12.37
2019-03-24T18:14:27.399Z,12.60
2019-03-24T18:16:58.468Z,13.00
2019-03-24T18:19:29.505Z,13.20
2019-03-24T18:22:11.102Z,11.83
2019-03-24T18:24:33.254Z,12.30
2019-03-24T18:27:04.290Z,10.53
2019-03-24T18:29:35.338Z,9.97
2019-03-24T18:32:06.348Z,10.10
2019-03-24T18:34:37.342Z,10.17
2019-03-24T18:37:08.471Z,10.03
2019-03-24T18:39:39.506Z,10.23
2019-03-24T18:42:10.642Z,10.57
2019-03-24T18:44:41.642Z,11.00
2019-03-24T18:47:12.682Z,11.00
2019-03-24T18:49:43.730Z,12.20
2019-03-24T18:52:22.684Z,12.53
2019-03-24T18:54:47.673Z,13.30
2019-03-24T18:57:18.722Z,14.17
2019-03-24T18:59:49.818Z,15.20
2019-03-24T19:02:20.867Z,14.27
2019-03-24T19:04:51.868Z,12.83
2019-03-24T19:07:22.884Z,12.27
2019-03-24T19:09:53.930Z,11.60
2019-03-24T19:12:24.976Z,11.27
2019-03-24T19:14:56.014Z,10.23
2019-03-24T19:17:27.001Z,9.97
2019-03-24T19:19:58.039Z,8.73
2019-03-24T19:22:33.562Z,8.83
2019-03-24T19:25:01.745Z,8.83
2019-03-24T19:27:32.834Z,8.53
2019-03-24T19:30:04.083Z,9.03
2019-03-24T19:32:35.336Z,8.63
2019-03-24T19:35:06.981Z,8.20
2019-03-24T19:37:38.048Z,8.23
2019-03-24T19:40:15.185Z,8.40
2019-03-24T19:42:46.158Z,8.00
2019-03-24T19:45:17.199Z,8.20
2019-03-24T19:47:48.215Z,8.23
2019-03-24T19:50:19.308Z,8.63
2019-03-24T19:52:50.436Z,7.97
2019-03-24T19:55:21.442Z,7.77
2019-03-24T19:57:52.449Z,8.33
2019-03-24T20:00:23.592Z,8.43
2019-03-24T20:02:54.584Z,8.00
2019-03-24T20:05:26.977Z,7.57
2019-03-24T20:07:58.085Z,7.40
2019-03-24T20:10:29.115Z,7.90
2019-03-24T20:13:00.113Z,7.40
2019-03-24T20:15:31.204Z,7.60
2019-03-24T20:18:02.193Z,8.43
2019-03-24T20:20:33.222Z,7.90
2019-03-24T20:23:04.348Z,8.17
2019-03-24T20:25:35.475Z,7.87
2019-03-24T20:28:06.613Z,7.90
2019-03-24T20:30:37.605Z,8.30
2019-03-24T20:33:08.654Z,9.03
2019-03-24T20:35:39.659Z,9.70
2019-03-24T20:38:10.700Z,11.50
2019-03-24T20:40:41.742Z,12.67
2019-03-24T20:43:12.838Z,14.07
2019-03-24T20:45:43.881Z,13.70
2019-03-24T20:48:15.048Z,13.47
2019-03-24T20:50:46.182Z,12.63
2019-03-24T20:53:18.316Z,11.90
2019-03-24T20:55:49.756Z,12.10
2019-03-24T20:58:20.762Z,11.70
2019-03-24T21:00:51.910Z,10.67
2019-03-24T21:03:22.954Z,10.20
2019-03-24T21:05:53.963Z,10.40
2019-03-24T21:08:24.971Z,11.27
2019-03-24T21:10:55.971Z,10.27
2019-03-24T21:13:27.030Z,10.43
2019-03-24T21:15:58.023Z,9.90
2019-03-24T21:18:29.055Z,9.47
2019-03-24T21:21:00.097Z,10.20
2019-03-24T21:23:31.133Z,10.10
2019-03-24T21:26:02.226Z,9.00
2019-03-24T21:28:33.259Z,9.50
2019-03-24T21:31:04.254Z,9.97
2019-03-24T21:33:35.281Z,9.20
2019-03-24T21:36:06.508Z,9.80
2019-03-24T21:38:37.501Z,9.60
2019-03-24T21:41:08.630Z,10.33
2019-03-24T21:43:39.625Z,10.07
2019-03-24T21:46:10.654Z,9.37
2019-03-24T21:48:41.653Z,10.20
2019-03-24T21:51:12.676Z,9.67
2019-03-24T21:53:43.705Z,10.40
2019-03-24T21:56:14.741Z,9.93
2019-03-24T21:58:45.728Z,10.60
2019-03-24T22:01:16.779Z,10.20
2019-03-24T22:03:47.798Z,10.37
2019-03-24T22:06:18.841Z,10.50
2019-03-24T22:08:49.884Z,10.07
2019-03-24T22:11:20.891Z,10.73
2019-03-24T22:13:51.928Z,10.77
2019-03-24T22:16:22.959Z,10.33
2019-03-24T22:18:53.956Z,11.10
2019-03-24T22:21:25.090Z,13.00
2019-03-24T22:23:56.078Z,12.60
2019-03-24T22:26:27.108Z,13.03
2019-03-24T22:28:58.137Z,13.50
2019-03-24T22:31:29.135Z,13.07
2019-03-24T22:34:00.174Z,12.67
2019-03-24T22:36:31.172Z,12.13
2019-03-24T22:39:02.206Z,11.90
2019-03-24T22:41:33.249Z,11.90
2019-03-24T22:44:04.242Z,12.80
2019-03-24T22:46:35.285Z,12.67
2019-03-24T22:49:06.435Z,11.13
2019-03-24T22:51:37.434Z,11.57
2019-03-24T22:54:08.451Z,10.73
2019-03-24T22:56:39.522Z,10.73
2019-03-24T22:59:10.534Z,9.87
2019-03-24T23:01:41.632Z,10.83
2019-03-24T23:04:12.658Z,10.50
2019-03-24T23:06:43.682Z,10.60
2019-03-24T23:09:14.674Z,10.63
2019-03-24T23:11:45.705Z,10.47
2019-03-24T23:14:16.744Z,10.23
2019-03-24T23:16:47.744Z,10.63
2019-03-24T23:19:18.737Z,10.50
2019-03-24T23:21:49.741Z,10.93
2019-03-24T23:24:20.736Z,9.53
2019-03-24T23:26:51.773Z,9.97
2019-03-24T23:29:22.766Z,10.30
2019-03-24T23:31:53.805Z,10.20
2019-03-24T23:34:24.818Z,10.17
2019-03-24T23:36:55.847Z,10.63
2019-03-24T23:39:26.838Z,10.43
2019-03-24T23:41:58.060Z,10.10
2019-03-24T23:44:29.053Z,10.23
2019-03-24T23:47:00.094Z,10.10
2019-03-24T23:49:31.130Z,10.63
2019-03-24T23:52:02.131Z,11.47
2019-03-24T23:54:33.169Z,11.23
2019-03-24T23:57:04.165Z,11.40
2019-03-24T23:59:35.190Z,12.00
